Terminal Aerodrome Forecast
Issued by NWS

Home | Current Version | Previous Version | Text Only | Print | Product List | Glossary On
Versions: 1 2 3 4 5 6 7 8 9 10 11 12 13 14 15 16 17 18 19 20 21 22 23 24 25 26 27 28 29 30 31 32 33 34 35 36 37 38 39 40 41 42 43 44 45 46 47 48 49 50
000
FTPA31 PHFO 260700 AAB
TAFOGG
TAF AMD
PHOG 260756Z 2608/2706 02010KT P6SM VCSH SCT022 BKN035
      TEMPO 2608/2610 -SHRA SCT006 OVC018
     FM261000 04010KT 6SM -RA SCT022 BKN035
     FM262000 05015G25KT P6SM SCT030 BKN050
      AMD LTD TO WX VIS AND WIND 2609/2616=

USA.gov is the U.S. government's official web portal to all federal, state and local government web resources and services.